sensor_id;sensor_type;location;lat;lon;timestamp;P1;durP1;ratioP1;P2;durP2;ratioP2
4766;SDS011;2397;53.576;9.746;2023-09-12T00:00:45;37.03;;;29.50;;
4766;SDS011;2397;53.576;9.746;2023-09-12T00:03:12;43.30;;;29.10;;
4766;SDS011;2397;53.576;9.746;2023-09-12T00:05:39;38.83;;;30.80;;
4766;SDS011;2397;53.576;9.746;2023-09-12T00:08:06;42.60;;;29.07;;
4766;SDS011;2397;53.576;9.746;2023-09-12T00:10:33;50.93;;;31.10;;
4766;SDS011;2397;53.576;9.746;2023-09-12T00:13:00;42.23;;;27.97;;
4766;SDS011;2397;53.576;9.746;2023-09-12T00:15:29;39.50;;;29.03;;
4766;SDS011;2397;53.576;9.746;2023-09-12T00:17:56;40.97;;;30.77;;
4766;SDS011;2397;53.576;9.746;2023-09-12T00:20:23;44.60;;;30.30;;
4766;SDS011;2397;53.576;9.746;2023-09-12T00:22:50;35.33;;;27.10;;
4766;SDS011;2397;53.576;9.746;2023-09-12T00:25:17;36.50;;;26.70;;
4766;SDS011;2397;53.576;9.746;2023-09-12T00:27:43;39.60;;;27.67;;
4766;SDS011;2397;53.576;9.746;2023-09-12T00:30:10;30.80;;;22.50;;
4766;SDS011;2397;53.576;9.746;2023-09-12T00:32:37;30.70;;;24.90;;
4766;SDS011;2397;53.576;9.746;2023-09-12T00:35:04;37.20;;;24.70;;
4766;SDS011;2397;53.576;9.746;2023-09-12T00:37:31;29.27;;;23.43;;
4766;SDS011;2397;53.576;9.746;2023-09-12T00:39:58;32.40;;;23.00;;
4766;SDS011;2397;53.576;9.746;2023-09-12T00:42:25;39.80;;;25.40;;
4766;SDS011;2397;53.576;9.746;2023-09-12T00:44:53;28.90;;;22.70;;
4766;SDS011;2397;53.576;9.746;2023-09-12T00:47:20;30.87;;;24.27;;
4766;SDS011;2397;53.576;9.746;2023-09-12T00:49:48;35.17;;;26.23;;
4766;SDS011;2397;53.576;9.746;2023-09-12T00:52:22;37.77;;;25.40;;
4766;SDS011;2397;53.576;9.746;2023-09-12T00:54:51;38.07;;;27.50;;
4766;SDS011;2397;53.576;9.746;2023-09-12T00:57:19;38.40;;;27.10;;
4766;SDS011;2397;53.576;9.746;2023-09-12T00:59:48;34.90;;;26.50;;
4766;SDS011;2397;53.576;9.746;2023-09-12T01:02:17;33.83;;;25.70;;
4766;SDS011;2397;53.576;9.746;2023-09-12T01:04:44;35.17;;;26.30;;
4766;SDS011;2397;53.576;9.746;2023-09-12T01:07:11;37.30;;;24.50;;
4766;SDS011;2397;53.576;9.746;2023-09-12T01:09:38;36.07;;;27.50;;
4766;SDS011;2397;53.576;9.746;2023-09-12T01:12:05;34.43;;;25.97;;
4766;SDS011;2397;53.576;9.746;2023-09-12T01:14:32;36.27;;;25.83;;
4766;SDS011;2397;53.576;9.746;2023-09-12T01:16:59;36.27;;;26.53;;
4766;SDS011;2397;53.576;9.746;2023-09-12T01:19:27;37.43;;;24.93;;
4766;SDS011;2397;53.576;9.746;2023-09-12T01:25:00;46.67;;;29.87;;
4766;SDS011;2397;53.576;9.746;2023-09-12T01:27:32;39.50;;;27.07;;
4766;SDS011;2397;53.576;9.746;2023-09-12T01:30:02;39.70;;;28.20;;
4766;SDS011;2397;53.576;9.746;2023-09-12T01:32:31;28.90;;;22.43;;
4766;SDS011;2397;53.576;9.746;2023-09-12T01:34:59;28.40;;;21.73;;
4766;SDS011;2397;53.576;9.746;2023-09-12T01:37:26;49.70;;;31.00;;
4766;SDS011;2397;53.576;9.746;2023-09-12T01:39:53;32.07;;;23.73;;
4766;SDS011;2397;53.576;9.746;2023-09-12T01:42:20;28.40;;;21.67;;
4766;SDS011;2397;53.576;9.746;2023-09-12T01:44:50;28.63;;;23.87;;
4766;SDS011;2397;53.576;9.746;2023-09-12T01:47:20;30.90;;;25.77;;
4766;SDS011;2397;53.576;9.746;2023-09-12T01:49:49;34.07;;;24.43;;
4766;SDS011;2397;53.576;9.746;2023-09-12T01:52:20;30.73;;;24.23;;
4766;SDS011;2397;53.576;9.746;2023-09-12T01:54:47;27.90;;;23.60;;
4766;SDS011;2397;53.576;9.746;2023-09-12T01:57:17;32.00;;;23.90;;
4766;SDS011;2397;53.576;9.746;2023-09-12T01:59:47;48.13;;;34.40;;
4766;SDS011;2397;53.576;9.746;2023-09-12T02:02:15;39.47;;;28.10;;
4766;SDS011;2397;53.576;9.746;2023-09-12T02:07:45;40.03;;;28.17;;
4766;SDS011;2397;53.576;9.746;2023-09-12T02:10:12;35.03;;;26.03;;
4766;SDS011;2397;53.576;9.746;2023-09-12T02:12:39;39.50;;;28.50;;
4766;SDS011;2397;53.576;9.746;2023-09-12T02:15:07;38.87;;;28.30;;
4766;SDS011;2397;53.576;9.746;2023-09-12T02:17:34;33.47;;;25.53;;
4766;SDS011;2397;53.576;9.746;2023-09-12T02:20:01;30.50;;;24.87;;
4766;SDS011;2397;53.576;9.746;2023-09-12T02:22:29;33.47;;;27.27;;
4766;SDS011;2397;53.576;9.746;2023-09-12T02:24:56;36.70;;;27.97;;
4766;SDS011;2397;53.576;9.746;2023-09-12T02:27:22;33.40;;;27.50;;
4766;SDS011;2397;53.576;9.746;2023-09-12T02:29:49;35.53;;;27.17;;
4766;SDS011;2397;53.576;9.746;2023-09-12T02:32:16;36.63;;;27.17;;
4766;SDS011;2397;53.576;9.746;2023-09-12T02:34:42;38.43;;;28.20;;
4766;SDS011;2397;53.576;9.746;2023-09-12T02:37:09;38.40;;;30.67;;
4766;SDS011;2397;53.576;9.746;2023-09-12T02:39:35;34.17;;;26.83;;
4766;SDS011;2397;53.576;9.746;2023-09-12T02:42:02;40.20;;;30.33;;
4766;SDS011;2397;53.576;9.746;2023-09-12T02:44:29;44.30;;;32.90;;
4766;SDS011;2397;53.576;9.746;2023-09-12T02:46:55;48.80;;;33.23;;
4766;SDS011;2397;53.576;9.746;2023-09-12T02:49:22;46.30;;;33.77;;
4766;SDS011;2397;53.576;9.746;2023-09-12T02:51:48;53.40;;;35.60;;
4766;SDS011;2397;53.576;9.746;2023-09-12T02:54:15;54.70;;;35.33;;
4766;SDS011;2397;53.576;9.746;2023-09-12T02:56:42;49.73;;;35.50;;
4766;SDS011;2397;53.576;9.746;2023-09-12T02:59:08;50.00;;;35.73;;
4766;SDS011;2397;53.576;9.746;2023-09-12T03:01:35;51.40;;;35.50;;
4766;SDS011;2397;53.576;9.746;2023-09-12T03:04:01;47.67;;;36.27;;
4766;SDS011;2397;53.576;9.746;2023-09-12T03:06:29;52.73;;;33.53;;
4766;SDS011;2397;53.576;9.746;2023-09-12T03:08:56;53.70;;;38.00;;
4766;SDS011;2397;53.576;9.746;2023-09-12T03:11:25;53.87;;;35.47;;
4766;SDS011;2397;53.576;9.746;2023-09-12T03:13:53;52.03;;;35.87;;
4766;SDS011;2397;53.576;9.746;2023-09-12T03:16:20;47.53;;;32.97;;
4766;SDS011;2397;53.576;9.746;2023-09-12T03:18:47;50.53;;;30.70;;
4766;SDS011;2397;53.576;9.746;2023-09-12T03:21:14;49.63;;;35.43;;
4766;SDS011;2397;53.576;9.746;2023-09-12T03:23:41;55.87;;;34.27;;
4766;SDS011;2397;53.576;9.746;2023-09-12T03:26:08;53.60;;;34.00;;
4766;SDS011;2397;53.576;9.746;2023-09-12T03:28:36;47.23;;;33.10;;
4766;SDS011;2397;53.576;9.746;2023-09-12T03:31:03;45.10;;;33.63;;
4766;SDS011;2397;53.576;9.746;2023-09-12T03:33:38;47.57;;;29.73;;
4766;SDS011;2397;53.576;9.746;2023-09-12T03:36:06;41.57;;;30.27;;
4766;SDS011;2397;53.576;9.746;2023-09-12T03:38:34;50.60;;;34.40;;
4766;SDS011;2397;53.576;9.746;2023-09-12T03:41:01;53.10;;;34.10;;
4766;SDS011;2397;53.576;9.746;2023-09-12T03:43:29;43.90;;;31.60;;
4766;SDS011;2397;53.576;9.746;2023-09-12T03:45:56;50.03;;;34.00;;
4766;SDS011;2397;53.576;9.746;2023-09-12T03:48:23;46.77;;;35.20;;
4766;SDS011;2397;53.576;9.746;2023-09-12T03:50:50;47.87;;;33.80;;
4766;SDS011;2397;53.576;9.746;2023-09-12T03:53:17;46.83;;;33.57;;
4766;SDS011;2397;53.576;9.746;2023-09-12T03:55:44;52.50;;;34.30;;
4766;SDS011;2397;53.576;9.746;2023-09-12T03:58:11;53.40;;;34.00;;
4766;SDS011;2397;53.576;9.746;2023-09-12T04:00:38;51.13;;;33.70;;
4766;SDS011;2397;53.576;9.746;2023-09-12T04:03:05;49.37;;;35.27;;
4766;SDS011;2397;53.576;9.746;2023-09-12T04:05:32;51.93;;;33.10;;
4766;SDS011;2397;53.576;9.746;2023-09-12T04:07:58;55.67;;;36.53;;
4766;SDS011;2397;53.576;9.746;2023-09-12T04:10:25;59.70;;;37.87;;
4766;SDS011;2397;53.576;9.746;2023-09-12T04:12:51;48.40;;;34.90;;
4766;SDS011;2397;53.576;9.746;2023-09-12T04:15:18;53.77;;;37.20;;
4766;SDS011;2397;53.576;9.746;2023-09-12T04:17:46;51.47;;;36.10;;
4766;SDS011;2397;53.576;9.746;2023-09-12T04:20:12;54.27;;;37.00;;
4766;SDS011;2397;53.576;9.746;2023-09-12T04:22:44;57.23;;;35.90;;
4766;SDS011;2397;53.576;9.746;2023-09-12T04:25:11;53.47;;;34.53;;
4766;SDS011;2397;53.576;9.746;2023-09-12T04:27:38;55.77;;;35.77;;
4766;SDS011;2397;53.576;9.746;2023-09-12T04:30:05;57.50;;;39.87;;
4766;SDS011;2397;53.576;9.746;2023-09-12T04:32:32;58.17;;;38.93;;
4766;SDS011;2397;53.576;9.746;2023-09-12T04:34:59;55.17;;;36.03;;
4766;SDS011;2397;53.576;9.746;2023-09-12T04:37:26;55.40;;;36.60;;
4766;SDS011;2397;53.576;9.746;2023-09-12T04:39:52;63.90;;;36.47;;
4766;SDS011;2397;53.576;9.746;2023-09-12T04:42:20;60.60;;;40.03;;
4766;SDS011;2397;53.576;9.746;2023-09-12T04:44:47;65.30;;;38.57;;
4766;SDS011;2397;53.576;9.746;2023-09-12T04:47:15;56.60;;;37.80;;
4766;SDS011;2397;53.576;9.746;2023-09-12T04:49:43;63.33;;;41.37;;
4766;SDS011;2397;53.576;9.746;2023-09-12T04:52:09;59.80;;;38.60;;
4766;SDS011;2397;53.576;9.746;2023-09-12T04:54:36;53.20;;;36.30;;
4766;SDS011;2397;53.576;9.746;2023-09-12T04:57:03;57.47;;;39.40;;
4766;SDS011;2397;53.576;9.746;2023-09-12T04:59:30;65.07;;;39.63;;
4766;SDS011;2397;53.576;9.746;2023-09-12T05:01:57;74.33;;;39.93;;
4766;SDS011;2397;53.576;9.746;2023-09-12T05:04:23;54.87;;;38.23;;
4766;SDS011;2397;53.576;9.746;2023-09-12T05:06:50;56.97;;;36.87;;
4766;SDS011;2397;53.576;9.746;2023-09-12T05:09:17;65.53;;;38.07;;
4766;SDS011;2397;53.576;9.746;2023-09-12T05:11:43;60.47;;;39.27;;
4766;SDS011;2397;53.576;9.746;2023-09-12T05:14:11;69.60;;;41.10;;
4766;SDS011;2397;53.576;9.746;2023-09-12T05:16:38;61.17;;;38.60;;
4766;SDS011;2397;53.576;9.746;2023-09-12T05:19:05;69.33;;;40.50;;
4766;SDS011;2397;53.576;9.746;2023-09-12T05:21:32;66.20;;;40.43;;
4766;SDS011;2397;53.576;9.746;2023-09-12T05:23:59;65.33;;;39.67;;
4766;SDS011;2397;53.576;9.746;2023-09-12T05:26:25;57.63;;;40.23;;
4766;SDS011;2397;53.576;9.746;2023-09-12T05:28:52;67.60;;;42.27;;
4766;SDS011;2397;53.576;9.746;2023-09-12T05:31:19;58.57;;;38.10;;
4766;SDS011;2397;53.576;9.746;2023-09-12T05:33:46;74.40;;;40.87;;
4766;SDS011;2397;53.576;9.746;2023-09-12T05:36:13;62.27;;;37.03;;
4766;SDS011;2397;53.576;9.746;2023-09-12T05:38:40;68.40;;;40.37;;
4766;SDS011;2397;53.576;9.746;2023-09-12T05:41:08;72.77;;;42.40;;
4766;SDS011;2397;53.576;9.746;2023-09-12T05:43:34;59.53;;;37.93;;
4766;SDS011;2397;53.576;9.746;2023-09-12T05:46:01;68.83;;;42.47;;
4766;SDS011;2397;53.576;9.746;2023-09-12T05:48:28;70.13;;;41.63;;
4766;SDS011;2397;53.576;9.746;2023-09-12T05:50:55;69.70;;;40.87;;
4766;SDS011;2397;53.576;9.746;2023-09-12T05:53:22;66.20;;;40.43;;
4766;SDS011;2397;53.576;9.746;2023-09-12T05:55:49;58.13;;;37.37;;
4766;SDS011;2397;53.576;9.746;2023-09-12T05:58:15;65.50;;;41.87;;
4766;SDS011;2397;53.576;9.746;2023-09-12T06:00:42;86.63;;;50.87;;
4766;SDS011;2397;53.576;9.746;2023-09-12T06:03:09;72.30;;;45.00;;
4766;SDS011;2397;53.576;9.746;2023-09-12T06:05:36;126.07;;;81.43;;
4766;SDS011;2397;53.576;9.746;2023-09-12T06:08:02;169.73;;;113.67;;
4766;SDS011;2397;53.576;9.746;2023-09-12T06:10:31;216.73;;;145.87;;
4766;SDS011;2397;53.576;9.746;2023-09-12T06:12:58;65.10;;;38.57;;
4766;SDS011;2397;53.576;9.746;2023-09-12T06:15:24;60.93;;;40.83;;
4766;SDS011;2397;53.576;9.746;2023-09-12T06:17:51;66.57;;;40.93;;
4766;SDS011;2397;53.576;9.746;2023-09-12T06:20:18;60.90;;;39.30;;
4766;SDS011;2397;53.576;9.746;2023-09-12T06:22:44;63.17;;;39.00;;
4766;SDS011;2397;53.576;9.746;2023-09-12T06:25:11;59.27;;;37.63;;
4766;SDS011;2397;53.576;9.746;2023-09-12T06:27:37;64.37;;;40.23;;
4766;SDS011;2397;53.576;9.746;2023-09-12T06:30:05;69.60;;;39.90;;
4766;SDS011;2397;53.576;9.746;2023-09-12T06:32:32;60.80;;;36.60;;
4766;SDS011;2397;53.576;9.746;2023-09-12T06:34:58;71.10;;;41.93;;
4766;SDS011;2397;53.576;9.746;2023-09-12T06:37:25;71.67;;;41.20;;
4766;SDS011;2397;53.576;9.746;2023-09-12T06:39:51;74.80;;;41.63;;
4766;SDS011;2397;53.576;9.746;2023-09-12T06:42:18;66.53;;;39.10;;
4766;SDS011;2397;53.576;9.746;2023-09-12T06:44:45;66.40;;;40.23;;
4766;SDS011;2397;53.576;9.746;2023-09-12T06:47:12;74.77;;;44.30;;
4766;SDS011;2397;53.576;9.746;2023-09-12T06:49:40;76.20;;;41.67;;
4766;SDS011;2397;53.576;9.746;2023-09-12T06:52:06;78.50;;;41.77;;
4766;SDS011;2397;53.576;9.746;2023-09-12T06:54:33;71.37;;;42.93;;
4766;SDS011;2397;53.576;9.746;2023-09-12T06:57:00;65.97;;;44.10;;
4766;SDS011;2397;53.576;9.746;2023-09-12T06:59:26;64.60;;;39.90;;
4766;SDS011;2397;53.576;9.746;2023-09-12T07:01:53;83.50;;;43.30;;
4766;SDS011;2397;53.576;9.746;2023-09-12T07:04:19;63.83;;;41.00;;
4766;SDS011;2397;53.576;9.746;2023-09-12T07:06:46;75.43;;;42.73;;
4766;SDS011;2397;53.576;9.746;2023-09-12T07:09:12;72.73;;;43.50;;
4766;SDS011;2397;53.576;9.746;2023-09-12T07:11:41;75.43;;;40.27;;
4766;SDS011;2397;53.576;9.746;2023-09-12T07:14:08;70.70;;;42.03;;
4766;SDS011;2397;53.576;9.746;2023-09-12T07:16:36;71.83;;;41.60;;
4766;SDS011;2397;53.576;9.746;2023-09-12T07:19:03;65.57;;;43.13;;
4766;SDS011;2397;53.576;9.746;2023-09-12T07:21:31;65.87;;;41.10;;
4766;SDS011;2397;53.576;9.746;2023-09-12T07:23:58;60.40;;;37.53;;
4766;SDS011;2397;53.576;9.746;2023-09-12T07:26:25;60.70;;;38.60;;
4766;SDS011;2397;53.576;9.746;2023-09-12T07:28:53;58.60;;;36.77;;
4766;SDS011;2397;53.576;9.746;2023-09-12T07:31:20;68.30;;;40.10;;
4766;SDS011;2397;53.576;9.746;2023-09-12T07:33:47;69.33;;;42.10;;
4766;SDS011;2397;53.576;9.746;2023-09-12T07:36:14;58.93;;;37.37;;
4766;SDS011;2397;53.576;9.746;2023-09-12T07:38:42;51.30;;;36.27;;
4766;SDS011;2397;53.576;9.746;2023-09-12T07:41:11;59.90;;;38.50;;
4766;SDS011;2397;53.576;9.746;2023-09-12T07:43:38;52.70;;;34.97;;
4766;SDS011;2397;53.576;9.746;2023-09-12T07:46:04;52.23;;;35.43;;
4766;SDS011;2397;53.576;9.746;2023-09-12T07:48:32;54.87;;;38.27;;
4766;SDS011;2397;53.576;9.746;2023-09-12T07:50:59;52.63;;;35.80;;
4766;SDS011;2397;53.576;9.746;2023-09-12T07:53:25;52.40;;;35.73;;
4766;SDS011;2397;53.576;9.746;2023-09-12T07:55:52;55.63;;;34.97;;
4766;SDS011;2397;53.576;9.746;2023-09-12T07:58:19;52.13;;;35.87;;
4766;SDS011;2397;53.576;9.746;2023-09-12T08:00:46;51.60;;;35.33;;
4766;SDS011;2397;53.576;9.746;2023-09-12T08:03:12;52.70;;;32.80;;
4766;SDS011;2397;53.576;9.746;2023-09-12T08:05:39;50.27;;;35.80;;
4766;SDS011;2397;53.576;9.746;2023-09-12T08:08:06;42.37;;;31.93;;
4766;SDS011;2397;53.576;9.746;2023-09-12T08:10:32;49.07;;;32.50;;
4766;SDS011;2397;53.576;9.746;2023-09-12T08:12:59;50.77;;;33.03;;
4766;SDS011;2397;53.576;9.746;2023-09-12T08:15:26;50.60;;;34.43;;
4766;SDS011;2397;53.576;9.746;2023-09-12T08:17:53;51.90;;;35.60;;
4766;SDS011;2397;53.576;9.746;2023-09-12T08:20:21;52.30;;;35.93;;
4766;SDS011;2397;53.576;9.746;2023-09-12T08:22:47;45.10;;;32.50;;
4766;SDS011;2397;53.576;9.746;2023-09-12T08:25:15;48.37;;;33.50;;
4766;SDS011;2397;53.576;9.746;2023-09-12T08:27:42;46.90;;;33.97;;
4766;SDS011;2397;53.576;9.746;2023-09-12T08:30:11;47.23;;;34.67;;
4766;SDS011;2397;53.576;9.746;2023-09-12T08:32:39;47.37;;;33.33;;
4766;SDS011;2397;53.576;9.746;2023-09-12T08:35:10;44.70;;;33.53;;
4766;SDS011;2397;53.576;9.746;2023-09-12T08:37:41;42.57;;;32.40;;
4766;SDS011;2397;53.576;9.746;2023-09-12T08:40:08;40.90;;;30.50;;
4766;SDS011;2397;53.576;9.746;2023-09-12T08:42:40;45.00;;;31.40;;
4766;SDS011;2397;53.576;9.746;2023-09-12T08:45:12;45.80;;;32.00;;
4766;SDS011;2397;53.576;9.746;2023-09-12T08:47:44;39.07;;;29.40;;
4766;SDS011;2397;53.576;9.746;2023-09-12T08:50:13;42.27;;;31.03;;
4766;SDS011;2397;53.576;9.746;2023-09-12T08:52:41;45.80;;;33.60;;
4766;SDS011;2397;53.576;9.746;2023-09-12T08:55:25;40.20;;;30.33;;
4766;SDS011;2397;53.576;9.746;2023-09-12T08:57:52;41.97;;;31.37;;
4766;SDS011;2397;53.576;9.746;2023-09-12T09:00:22;40.13;;;31.37;;
4766;SDS011;2397;53.576;9.746;2023-09-12T09:02:49;39.60;;;30.30;;
4766;SDS011;2397;53.576;9.746;2023-09-12T09:05:16;34.63;;;29.10;;
4766;SDS011;2397;53.576;9.746;2023-09-12T09:07:45;42.53;;;30.33;;
4766;SDS011;2397;53.576;9.746;2023-09-12T09:10:15;40.67;;;31.57;;
4766;SDS011;2397;53.576;9.746;2023-09-12T09:12:48;42.97;;;31.80;;
4766;SDS011;2397;53.576;9.746;2023-09-12T09:15:24;44.73;;;30.30;;
4766;SDS011;2397;53.576;9.746;2023-09-12T09:17:56;37.83;;;30.33;;
4766;SDS011;2397;53.576;9.746;2023-09-12T09:20:34;37.17;;;28.20;;
4766;SDS011;2397;53.576;9.746;2023-09-12T09:23:02;32.40;;;27.23;;
4766;SDS011;2397;53.576;9.746;2023-09-12T09:25:33;33.73;;;28.27;;
4766;SDS011;2397;53.576;9.746;2023-09-12T09:28:03;34.40;;;27.70;;
4766;SDS011;2397;53.576;9.746;2023-09-12T09:30:46;34.10;;;27.33;;
4766;SDS011;2397;53.576;9.746;2023-09-12T09:33:14;35.87;;;27.20;;
4766;SDS011;2397;53.576;9.746;2023-09-12T09:35:42;34.27;;;26.00;;
4766;SDS011;2397;53.576;9.746;2023-09-12T09:38:09;37.23;;;29.87;;
4766;SDS011;2397;53.576;9.746;2023-09-12T09:40:36;27.70;;;24.20;;
4766;SDS011;2397;53.576;9.746;2023-09-12T09:43:03;26.40;;;22.67;;
4766;SDS011;2397;53.576;9.746;2023-09-12T09:45:30;27.93;;;22.33;;
4766;SDS011;2397;53.576;9.746;2023-09-12T09:47:58;31.90;;;23.07;;
4766;SDS011;2397;53.576;9.746;2023-09-12T09:50:31;26.23;;;23.20;;
4766;SDS011;2397;53.576;9.746;2023-09-12T09:52:59;25.47;;;22.73;;
4766;SDS011;2397;53.576;9.746;2023-09-12T09:55:27;27.40;;;23.13;;
4766;SDS011;2397;53.576;9.746;2023-09-12T09:57:54;28.67;;;22.50;;
4766;SDS011;2397;53.576;9.746;2023-09-12T10:00:22;31.03;;;24.47;;
4766;SDS011;2397;53.576;9.746;2023-09-12T10:02:49;28.23;;;25.20;;
4766;SDS011;2397;53.576;9.746;2023-09-12T10:05:18;25.80;;;22.97;;
4766;SDS011;2397;53.576;9.746;2023-09-12T10:07:47;26.93;;;22.50;;
4766;SDS011;2397;53.576;9.746;2023-09-12T10:10:18;26.97;;;23.17;;
4766;SDS011;2397;53.576;9.746;2023-09-12T10:12:49;26.33;;;22.23;;
4766;SDS011;2397;53.576;9.746;2023-09-12T10:15:18;27.30;;;23.43;;
4766;SDS011;2397;53.576;9.746;2023-09-12T10:17:51;29.67;;;22.87;;
4766;SDS011;2397;53.576;9.746;2023-09-12T10:20:24;27.23;;;21.63;;
4766;SDS011;2397;53.576;9.746;2023-09-12T10:23:03;26.90;;;23.00;;
4766;SDS011;2397;53.576;9.746;2023-09-12T10:25:35;29.37;;;22.93;;
4766;SDS011;2397;53.576;9.746;2023-09-12T10:28:04;33.83;;;24.60;;
4766;SDS011;2397;53.576;9.746;2023-09-12T10:30:33;31.67;;;25.27;;
4766;SDS011;2397;53.576;9.746;2023-09-12T10:33:01;31.00;;;25.27;;
4766;SDS011;2397;53.576;9.746;2023-09-12T10:35:30;30.10;;;24.83;;
4766;SDS011;2397;53.576;9.746;2023-09-12T10:37:59;31.03;;;24.53;;
4766;SDS011;2397;53.576;9.746;2023-09-12T10:40:31;31.10;;;24.37;;
4766;SDS011;2397;53.576;9.746;2023-09-12T10:43:01;28.50;;;23.23;;
4766;SDS011;2397;53.576;9.746;2023-09-12T10:45:31;29.80;;;23.00;;
4766;SDS011;2397;53.576;9.746;2023-09-12T10:47:59;32.07;;;23.43;;
4766;SDS011;2397;53.576;9.746;2023-09-12T10:50:26;32.70;;;24.60;;
4766;SDS011;2397;53.576;9.746;2023-09-12T10:52:53;32.10;;;23.53;;
4766;SDS011;2397;53.576;9.746;2023-09-12T10:55:20;33.43;;;23.70;;
4766;SDS011;2397;53.576;9.746;2023-09-12T10:57:59;32.30;;;26.60;;
4766;SDS011;2397;53.576;9.746;2023-09-12T11:00:30;25.83;;;22.83;;
4766;SDS011;2397;53.576;9.746;2023-09-12T11:05:55;28.20;;;23.47;;
4766;SDS011;2397;53.576;9.746;2023-09-12T11:08:22;29.87;;;22.67;;
4766;SDS011;2397;53.576;9.746;2023-09-12T11:13:46;31.67;;;24.67;;
4766;SDS011;2397;53.576;9.746;2023-09-12T11:16:28;27.17;;;22.03;;
4766;SDS011;2397;53.576;9.746;2023-09-12T11:21:53;34.30;;;24.63;;
4766;SDS011;2397;53.576;9.746;2023-09-12T11:24:20;32.70;;;24.53;;
4766;SDS011;2397;53.576;9.746;2023-09-12T11:26:57;28.27;;;24.50;;
4766;SDS011;2397;53.576;9.746;2023-09-12T11:29:29;26.37;;;21.87;;
4766;SDS011;2397;53.576;9.746;2023-09-12T11:32:02;30.17;;;25.50;;
4766;SDS011;2397;53.576;9.746;2023-09-12T11:34:31;29.30;;;26.20;;
4766;SDS011;2397;53.576;9.746;2023-09-12T11:37:07;34.50;;;28.87;;
4766;SDS011;2397;53.576;9.746;2023-09-12T11:39:36;34.37;;;26.87;;
4766;SDS011;2397;53.576;9.746;2023-09-12T11:42:03;33.60;;;27.73;;
4766;SDS011;2397;53.576;9.746;2023-09-12T11:44:31;35.00;;;29.00;;
4766;SDS011;2397;53.576;9.746;2023-09-12T11:47:01;33.60;;;27.53;;
4766;SDS011;2397;53.576;9.746;2023-09-12T11:49:36;39.53;;;30.30;;
4766;SDS011;2397;53.576;9.746;2023-09-12T11:52:07;39.33;;;32.67;;
4766;SDS011;2397;53.576;9.746;2023-09-12T11:54:41;41.60;;;31.60;;
4766;SDS011;2397;53.576;9.746;2023-09-12T11:57:09;36.13;;;29.27;;
4766;SDS011;2397;53.576;9.746;2023-09-12T11:59:42;38.83;;;30.87;;
4766;SDS011;2397;53.576;9.746;2023-09-12T12:02:14;34.57;;;29.57;;
4766;SDS011;2397;53.576;9.746;2023-09-12T12:04:41;34.60;;;29.33;;
4766;SDS011;2397;53.576;9.746;2023-09-12T12:07:08;35.50;;;25.03;;
4766;SDS011;2397;53.576;9.746;2023-09-12T12:09:36;32.27;;;26.60;;
4766;SDS011;2397;53.576;9.746;2023-09-12T12:12:04;30.87;;;24.80;;
4766;SDS011;2397;53.576;9.746;2023-09-12T12:14:40;26.30;;;23.47;;
4766;SDS011;2397;53.576;9.746;2023-09-12T12:17:10;30.20;;;24.90;;
4766;SDS011;2397;53.576;9.746;2023-09-12T12:19:38;29.47;;;23.77;;
4766;SDS011;2397;53.576;9.746;2023-09-12T12:22:05;26.70;;;23.10;;
4766;SDS011;2397;53.576;9.746;2023-09-12T12:24:52;27.10;;;23.47;;
4766;SDS011;2397;53.576;9.746;2023-09-12T12:27:18;28.27;;;23.60;;
4766;SDS011;2397;53.576;9.746;2023-09-12T12:29:45;30.50;;;23.40;;
4766;SDS011;2397;53.576;9.746;2023-09-12T12:32:14;26.13;;;23.23;;
4766;SDS011;2397;53.576;9.746;2023-09-12T12:34:41;31.17;;;23.87;;
4766;SDS011;2397;53.576;9.746;2023-09-12T12:37:29;27.13;;;22.67;;
4766;SDS011;2397;53.576;9.746;2023-09-12T12:39:59;26.30;;;22.67;;
4766;SDS011;2397;53.576;9.746;2023-09-12T12:42:32;23.00;;;20.13;;
4766;SDS011;2397;53.576;9.746;2023-09-12T12:47:42;26.30;;;23.57;;
4766;SDS011;2397;53.576;9.746;2023-09-12T12:50:11;24.03;;;21.30;;
4766;SDS011;2397;53.576;9.746;2023-09-12T12:52:42;27.07;;;20.43;;
4766;SDS011;2397;53.576;9.746;2023-09-12T12:55:10;23.40;;;21.00;;
4766;SDS011;2397;53.576;9.746;2023-09-12T12:57:38;22.17;;;19.70;;
4766;SDS011;2397;53.576;9.746;2023-09-12T13:00:10;22.60;;;20.27;;
4766;SDS011;2397;53.576;9.746;2023-09-12T13:02:38;20.93;;;18.63;;
4766;SDS011;2397;53.576;9.746;2023-09-12T13:05:06;22.13;;;19.73;;
4766;SDS011;2397;53.576;9.746;2023-09-12T13:07:45;20.30;;;18.20;;
4766;SDS011;2397;53.576;9.746;2023-09-12T13:10:11;21.73;;;19.13;;
4766;SDS011;2397;53.576;9.746;2023-09-12T13:12:38;21.10;;;18.57;;
4766;SDS011;2397;53.576;9.746;2023-09-12T13:15:05;24.00;;;21.50;;
4766;SDS011;2397;53.576;9.746;2023-09-12T13:17:32;24.50;;;21.83;;
4766;SDS011;2397;53.576;9.746;2023-09-12T13:19:59;24.50;;;21.97;;
4766;SDS011;2397;53.576;9.746;2023-09-12T13:22:25;23.20;;;20.90;;
4766;SDS011;2397;53.576;9.746;2023-09-12T13:24:52;24.50;;;21.97;;
4766;SDS011;2397;53.576;9.746;2023-09-12T13:27:19;29.40;;;25.53;;
4766;SDS011;2397;53.576;9.746;2023-09-12T13:29:45;28.70;;;25.80;;
4766;SDS011;2397;53.576;9.746;2023-09-12T13:32:14;26.20;;;23.50;;
4766;SDS011;2397;53.576;9.746;2023-09-12T13:34:42;25.07;;;22.57;;
4766;SDS011;2397;53.576;9.746;2023-09-12T13:37:09;27.67;;;24.77;;
4766;SDS011;2397;53.576;9.746;2023-09-12T13:39:38;28.73;;;25.73;;
4766;SDS011;2397;53.576;9.746;2023-09-12T13:42:06;25.63;;;22.90;;
4766;SDS011;2397;53.576;9.746;2023-09-12T13:44:34;27.20;;;24.07;;
4766;SDS011;2397;53.576;9.746;2023-09-12T13:47:01;26.27;;;22.50;;
4766;SDS011;2397;53.576;9.746;2023-09-12T13:49:28;22.33;;;20.00;;
4766;SDS011;2397;53.576;9.746;2023-09-12T13:51:55;19.93;;;17.83;;
4766;SDS011;2397;53.576;9.746;2023-09-12T13:54:21;22.50;;;20.10;;
4766;SDS011;2397;53.576;9.746;2023-09-12T13:56:48;20.83;;;18.30;;
4766;SDS011;2397;53.576;9.746;2023-09-12T13:59:15;19.73;;;17.73;;
4766;SDS011;2397;53.576;9.746;2023-09-12T14:01:42;18.90;;;17.07;;
4766;SDS011;2397;53.576;9.746;2023-09-12T14:04:09;17.50;;;15.70;;
4766;SDS011;2397;53.576;9.746;2023-09-12T14:06:36;22.00;;;17.10;;
4766;SDS011;2397;53.576;9.746;2023-09-12T14:09:03;19.40;;;17.40;;
4766;SDS011;2397;53.576;9.746;2023-09-12T14:11:31;19.43;;;17.33;;
4766;SDS011;2397;53.576;9.746;2023-09-12T14:14:03;19.80;;;17.60;;
4766;SDS011;2397;53.576;9.746;2023-09-12T14:16:42;23.07;;;20.77;;
4766;SDS011;2397;53.576;9.746;2023-09-12T14:19:14;20.43;;;18.50;;
4766;SDS011;2397;53.576;9.746;2023-09-12T14:21:42;21.87;;;19.57;;
4766;SDS011;2397;53.576;9.746;2023-09-12T14:24:11;25.20;;;22.47;;
4766;SDS011;2397;53.576;9.746;2023-09-12T14:26:38;22.90;;;19.70;;
4766;SDS011;2397;53.576;9.746;2023-09-12T14:29:07;21.57;;;19.47;;
4766;SDS011;2397;53.576;9.746;2023-09-12T14:31:34;23.00;;;20.70;;
4766;SDS011;2397;53.576;9.746;2023-09-12T14:34:03;19.90;;;18.00;;
4766;SDS011;2397;53.576;9.746;2023-09-12T14:36:31;18.70;;;16.87;;
4766;SDS011;2397;53.576;9.746;2023-09-12T14:38:58;21.53;;;19.30;;
4766;SDS011;2397;53.576;9.746;2023-09-12T14:41:25;19.90;;;17.87;;
4766;SDS011;2397;53.576;9.746;2023-09-12T14:43:51;22.07;;;19.73;;
4766;SDS011;2397;53.576;9.746;2023-09-12T14:46:18;21.13;;;19.13;;
4766;SDS011;2397;53.576;9.746;2023-09-12T14:48:44;19.20;;;17.27;;
4766;SDS011;2397;53.576;9.746;2023-09-12T14:51:25;22.10;;;18.70;;
4766;SDS011;2397;53.576;9.746;2023-09-12T14:53:58;20.57;;;18.63;;
4766;SDS011;2397;53.576;9.746;2023-09-12T14:56:24;18.87;;;16.40;;
4766;SDS011;2397;53.576;9.746;2023-09-12T14:58:51;19.40;;;17.40;;
4766;SDS011;2397;53.576;9.746;2023-09-12T15:01:17;17.53;;;15.83;;
4766;SDS011;2397;53.576;9.746;2023-09-12T15:03:44;16.93;;;15.23;;
4766;SDS011;2397;53.576;9.746;2023-09-12T15:06:12;17.80;;;16.20;;
4766;SDS011;2397;53.576;9.746;2023-09-12T15:08:38;19.13;;;17.30;;
4766;SDS011;2397;53.576;9.746;2023-09-12T15:11:05;15.83;;;14.40;;